Terminal Aerodrome Forecast
Issued by NWS Austin/San Antonio, TX

Home | Current Version | Previous Version | Text Only | Print | Product List | Glossary On
Versions: 1 2 3 4 5 6 7 8 9 10 11 12 13 14 15
917
FTUS44 KEWX 151740
TAFSAT
TAF
KSAT 151740Z 1518/1624 36009KT P6SM BKN150 OVC250
     FM160000 VRB03KT P6SM OVC200
     FM161600 16006KT 5SM -RA OVC020
     FM161800 15006KT 2SM RA OVC007=

USA.gov is the U.S. government's official web portal to all federal, state and local government web resources and services.